sensor_id;sensor_type;location;lat;lon;timestamp;P1;durP1;ratioP1;P2;durP2;ratioP2
16963;SDS011;8598;50.508;10.436;2023-04-06T00:02:11;11.90;;;7.23;;
16963;SDS011;8598;50.508;10.436;2023-04-06T00:04:38;11.80;;;7.70;;
16963;SDS011;8598;50.508;10.436;2023-04-06T00:07:04;12.20;;;6.93;;
16963;SDS011;8598;50.508;10.436;2023-04-06T00:09:32;9.33;;;7.27;;
16963;SDS011;8598;50.508;10.436;2023-04-06T00:11:59;10.37;;;6.80;;
16963;SDS011;8598;50.508;10.436;2023-04-06T00:14:26;10.03;;;7.53;;
16963;SDS011;8598;50.508;10.436;2023-04-06T00:16:52;13.47;;;7.50;;
16963;SDS011;8598;50.508;10.436;2023-04-06T00:19:19;12.00;;;7.77;;
16963;SDS011;8598;50.508;10.436;2023-04-06T00:21:46;12.13;;;7.83;;
16963;SDS011;8598;50.508;10.436;2023-04-06T00:24:12;8.97;;;6.47;;
16963;SDS011;8598;50.508;10.436;2023-04-06T00:26:40;10.27;;;7.63;;
16963;SDS011;8598;50.508;10.436;2023-04-06T00:29:07;10.03;;;7.50;;
16963;SDS011;8598;50.508;10.436;2023-04-06T00:31:34;12.43;;;7.13;;
16963;SDS011;8598;50.508;10.436;2023-04-06T00:34:00;13.50;;;7.83;;
16963;SDS011;8598;50.508;10.436;2023-04-06T00:36:27;10.90;;;7.90;;
16963;SDS011;8598;50.508;10.436;2023-04-06T00:38:53;8.27;;;6.83;;
16963;SDS011;8598;50.508;10.436;2023-04-06T00:41:20;11.50;;;7.23;;
16963;SDS011;8598;50.508;10.436;2023-04-06T00:43:48;11.47;;;7.50;;
16963;SDS011;8598;50.508;10.436;2023-04-06T00:46:15;11.60;;;7.80;;
16963;SDS011;8598;50.508;10.436;2023-04-06T00:48:41;11.80;;;8.23;;
16963;SDS011;8598;50.508;10.436;2023-04-06T00:51:08;12.07;;;7.67;;
16963;SDS011;8598;50.508;10.436;2023-04-06T00:53:35;11.00;;;7.43;;
16963;SDS011;8598;50.508;10.436;2023-04-06T00:56:01;13.13;;;7.70;;
16963;SDS011;8598;50.508;10.436;2023-04-06T00:58:28;13.27;;;8.70;;
16963;SDS011;8598;50.508;10.436;2023-04-06T01:00:57;9.87;;;7.50;;
16963;SDS011;8598;50.508;10.436;2023-04-06T01:03:24;12.20;;;7.37;;
16963;SDS011;8598;50.508;10.436;2023-04-06T01:05:51;12.27;;;7.90;;
16963;SDS011;8598;50.508;10.436;2023-04-06T01:08:23;11.33;;;8.00;;
16963;SDS011;8598;50.508;10.436;2023-04-06T01:10:49;11.27;;;7.20;;
16963;SDS011;8598;50.508;10.436;2023-04-06T01:13:16;15.90;;;8.57;;
16963;SDS011;8598;50.508;10.436;2023-04-06T01:15:43;8.97;;;6.60;;
16963;SDS011;8598;50.508;10.436;2023-04-06T01:18:11;15.53;;;8.50;;
16963;SDS011;8598;50.508;10.436;2023-04-06T01:20:37;14.50;;;8.43;;
16963;SDS011;8598;50.508;10.436;2023-04-06T01:23:05;11.67;;;7.77;;
16963;SDS011;8598;50.508;10.436;2023-04-06T01:25:32;16.90;;;7.97;;
16963;SDS011;8598;50.508;10.436;2023-04-06T01:27:58;12.33;;;8.97;;
16963;SDS011;8598;50.508;10.436;2023-04-06T01:30:25;13.30;;;8.67;;
16963;SDS011;8598;50.508;10.436;2023-04-06T01:32:52;18.07;;;8.73;;
16963;SDS011;8598;50.508;10.436;2023-04-06T01:35:19;14.00;;;8.20;;
16963;SDS011;8598;50.508;10.436;2023-04-06T01:37:45;11.33;;;7.87;;
16963;SDS011;8598;50.508;10.436;2023-04-06T01:40:13;11.87;;;8.33;;
16963;SDS011;8598;50.508;10.436;2023-04-06T01:42:40;12.33;;;8.57;;
16963;SDS011;8598;50.508;10.436;2023-04-06T01:45:07;13.67;;;8.83;;
16963;SDS011;8598;50.508;10.436;2023-04-06T01:47:34;11.23;;;8.40;;
16963;SDS011;8598;50.508;10.436;2023-04-06T01:50:01;17.20;;;9.13;;
16963;SDS011;8598;50.508;10.436;2023-04-06T01:52:31;13.90;;;9.33;;
16963;SDS011;8598;50.508;10.436;2023-04-06T01:54:59;13.97;;;8.27;;
16963;SDS011;8598;50.508;10.436;2023-04-06T01:57:26;11.43;;;8.37;;
16963;SDS011;8598;50.508;10.436;2023-04-06T01:59:53;12.87;;;7.67;;
16963;SDS011;8598;50.508;10.436;2023-04-06T02:02:20;10.87;;;6.80;;
16963;SDS011;8598;50.508;10.436;2023-04-06T02:04:46;11.53;;;7.87;;
16963;SDS011;8598;50.508;10.436;2023-04-06T02:07:13;16.20;;;8.77;;
16963;SDS011;8598;50.508;10.436;2023-04-06T02:09:39;11.73;;;8.03;;
16963;SDS011;8598;50.508;10.436;2023-04-06T02:12:06;11.53;;;7.47;;
16963;SDS011;8598;50.508;10.436;2023-04-06T02:14:34;13.23;;;8.17;;
16963;SDS011;8598;50.508;10.436;2023-04-06T02:17:01;9.40;;;7.77;;
16963;SDS011;8598;50.508;10.436;2023-04-06T02:19:27;16.93;;;7.47;;
16963;SDS011;8598;50.508;10.436;2023-04-06T02:21:54;15.07;;;7.67;;
16963;SDS011;8598;50.508;10.436;2023-04-06T02:24:20;12.73;;;8.27;;
16963;SDS011;8598;50.508;10.436;2023-04-06T02:26:47;12.23;;;7.80;;
16963;SDS011;8598;50.508;10.436;2023-04-06T02:29:14;12.87;;;9.03;;
16963;SDS011;8598;50.508;10.436;2023-04-06T02:31:41;14.37;;;8.33;;
16963;SDS011;8598;50.508;10.436;2023-04-06T02:34:08;13.53;;;8.40;;
16963;SDS011;8598;50.508;10.436;2023-04-06T02:36:37;12.30;;;8.53;;
16963;SDS011;8598;50.508;10.436;2023-04-06T02:39:03;17.17;;;8.93;;
16963;SDS011;8598;50.508;10.436;2023-04-06T02:41:30;13.53;;;8.77;;
16963;SDS011;8598;50.508;10.436;2023-04-06T02:43:56;16.10;;;9.33;;
16963;SDS011;8598;50.508;10.436;2023-04-06T02:46:23;13.73;;;8.83;;
16963;SDS011;8598;50.508;10.436;2023-04-06T02:48:51;14.67;;;9.07;;
16963;SDS011;8598;50.508;10.436;2023-04-06T02:51:18;13.53;;;8.97;;
16963;SDS011;8598;50.508;10.436;2023-04-06T02:53:45;14.33;;;8.30;;
16963;SDS011;8598;50.508;10.436;2023-04-06T02:56:12;12.03;;;8.97;;
16963;SDS011;8598;50.508;10.436;2023-04-06T02:58:38;12.47;;;7.90;;
16963;SDS011;8598;50.508;10.436;2023-04-06T03:01:05;14.90;;;7.87;;
16963;SDS011;8598;50.508;10.436;2023-04-06T03:03:32;15.60;;;8.47;;
16963;SDS011;8598;50.508;10.436;2023-04-06T03:05:59;11.73;;;8.07;;
16963;SDS011;8598;50.508;10.436;2023-04-06T03:08:26;12.80;;;8.87;;
16963;SDS011;8598;50.508;10.436;2023-04-06T03:10:53;15.20;;;8.60;;
16963;SDS011;8598;50.508;10.436;2023-04-06T03:13:20;13.57;;;8.00;;
16963;SDS011;8598;50.508;10.436;2023-04-06T03:15:46;11.50;;;8.40;;
16963;SDS011;8598;50.508;10.436;2023-04-06T03:18:13;11.83;;;8.57;;
16963;SDS011;8598;50.508;10.436;2023-04-06T03:20:40;17.40;;;9.07;;
16963;SDS011;8598;50.508;10.436;2023-04-06T03:23:08;13.33;;;8.27;;
16963;SDS011;8598;50.508;10.436;2023-04-06T03:25:34;15.67;;;8.53;;
16963;SDS011;8598;50.508;10.436;2023-04-06T03:28:01;10.77;;;8.33;;
16963;SDS011;8598;50.508;10.436;2023-04-06T03:30:28;14.03;;;8.77;;
16963;SDS011;8598;50.508;10.436;2023-04-06T03:32:54;10.83;;;8.73;;
16963;SDS011;8598;50.508;10.436;2023-04-06T03:35:21;18.67;;;8.97;;
16963;SDS011;8598;50.508;10.436;2023-04-06T03:37:47;12.43;;;8.73;;
16963;SDS011;8598;50.508;10.436;2023-04-06T03:40:16;11.87;;;7.77;;
16963;SDS011;8598;50.508;10.436;2023-04-06T03:42:42;13.27;;;8.27;;
16963;SDS011;8598;50.508;10.436;2023-04-06T03:45:09;12.90;;;8.60;;
16963;SDS011;8598;50.508;10.436;2023-04-06T03:47:37;11.37;;;7.90;;
16963;SDS011;8598;50.508;10.436;2023-04-06T03:50:04;14.07;;;8.30;;
16963;SDS011;8598;50.508;10.436;2023-04-06T03:52:32;10.33;;;7.97;;
16963;SDS011;8598;50.508;10.436;2023-04-06T03:54:58;9.87;;;8.17;;
16963;SDS011;8598;50.508;10.436;2023-04-06T03:57:26;11.80;;;7.53;;
16963;SDS011;8598;50.508;10.436;2023-04-06T03:59:53;16.00;;;8.50;;
16963;SDS011;8598;50.508;10.436;2023-04-06T04:02:19;13.83;;;8.37;;
16963;SDS011;8598;50.508;10.436;2023-04-06T04:04:46;14.90;;;8.70;;
16963;SDS011;8598;50.508;10.436;2023-04-06T04:07:13;14.40;;;8.97;;
16963;SDS011;8598;50.508;10.436;2023-04-06T04:09:39;21.03;;;9.77;;
16963;SDS011;8598;50.508;10.436;2023-04-06T04:12:06;17.53;;;9.40;;
16963;SDS011;8598;50.508;10.436;2023-04-06T04:14:34;15.80;;;9.13;;
16963;SDS011;8598;50.508;10.436;2023-04-06T04:17:01;13.97;;;9.03;;
16963;SDS011;8598;50.508;10.436;2023-04-06T04:19:27;13.60;;;9.30;;
16963;SDS011;8598;50.508;10.436;2023-04-06T04:21:54;18.03;;;9.10;;
16963;SDS011;8598;50.508;10.436;2023-04-06T04:24:20;21.83;;;8.87;;
16963;SDS011;8598;50.508;10.436;2023-04-06T04:26:47;16.70;;;8.97;;
16963;SDS011;8598;50.508;10.436;2023-04-06T04:29:14;13.17;;;9.63;;
16963;SDS011;8598;50.508;10.436;2023-04-06T04:31:42;12.77;;;8.90;;
16963;SDS011;8598;50.508;10.436;2023-04-06T04:34:09;14.13;;;8.80;;
16963;SDS011;8598;50.508;10.436;2023-04-06T04:36:36;15.07;;;9.23;;
16963;SDS011;8598;50.508;10.436;2023-04-06T04:39:02;11.93;;;7.83;;
16963;SDS011;8598;50.508;10.436;2023-04-06T04:41:29;14.33;;;9.60;;
16963;SDS011;8598;50.508;10.436;2023-04-06T04:43:56;13.13;;;9.20;;
16963;SDS011;8598;50.508;10.436;2023-04-06T04:46:22;13.83;;;9.03;;
16963;SDS011;8598;50.508;10.436;2023-04-06T04:48:50;15.10;;;9.23;;
16963;SDS011;8598;50.508;10.436;2023-04-06T04:51:17;11.47;;;8.20;;
16963;SDS011;8598;50.508;10.436;2023-04-06T04:53:44;12.47;;;9.17;;
16963;SDS011;8598;50.508;10.436;2023-04-06T04:56:11;17.20;;;9.47;;
16963;SDS011;8598;50.508;10.436;2023-04-06T04:58:37;13.63;;;8.97;;
16963;SDS011;8598;50.508;10.436;2023-04-06T05:01:04;12.10;;;8.23;;
16963;SDS011;8598;50.508;10.436;2023-04-06T05:03:32;15.00;;;8.37;;
16963;SDS011;8598;50.508;10.436;2023-04-06T05:06:00;19.07;;;10.70;;
16963;SDS011;8598;50.508;10.436;2023-04-06T05:08:27;13.70;;;8.53;;
16963;SDS011;8598;50.508;10.436;2023-04-06T05:10:53;13.97;;;9.17;;
16963;SDS011;8598;50.508;10.436;2023-04-06T05:13:20;13.10;;;8.73;;
16963;SDS011;8598;50.508;10.436;2023-04-06T05:15:47;13.67;;;9.43;;
16963;SDS011;8598;50.508;10.436;2023-04-06T05:18:14;14.63;;;10.00;;
16963;SDS011;8598;50.508;10.436;2023-04-06T05:20:41;15.03;;;9.73;;
16963;SDS011;8598;50.508;10.436;2023-04-06T05:23:10;13.20;;;9.03;;
16963;SDS011;8598;50.508;10.436;2023-04-06T05:25:37;13.90;;;8.90;;
16963;SDS011;8598;50.508;10.436;2023-04-06T05:28:03;14.27;;;9.13;;
16963;SDS011;8598;50.508;10.436;2023-04-06T05:30:30;15.13;;;8.30;;
16963;SDS011;8598;50.508;10.436;2023-04-06T05:32:57;16.23;;;9.07;;
16963;SDS011;8598;50.508;10.436;2023-04-06T05:35:24;14.00;;;8.90;;
16963;SDS011;8598;50.508;10.436;2023-04-06T05:37:51;20.00;;;8.80;;
16963;SDS011;8598;50.508;10.436;2023-04-06T05:40:19;15.67;;;9.13;;
16963;SDS011;8598;50.508;10.436;2023-04-06T05:42:45;14.90;;;9.83;;
16963;SDS011;8598;50.508;10.436;2023-04-06T05:45:12;13.20;;;7.87;;
16963;SDS011;8598;50.508;10.436;2023-04-06T05:47:41;17.40;;;8.57;;
16963;SDS011;8598;50.508;10.436;2023-04-06T05:50:09;12.43;;;8.40;;
16963;SDS011;8598;50.508;10.436;2023-04-06T05:52:36;10.77;;;6.63;;
16963;SDS011;8598;50.508;10.436;2023-04-06T05:55:03;10.13;;;7.27;;
16963;SDS011;8598;50.508;10.436;2023-04-06T05:57:31;9.57;;;6.80;;
16963;SDS011;8598;50.508;10.436;2023-04-06T05:59:58;6.87;;;5.60;;
16963;SDS011;8598;50.508;10.436;2023-04-06T06:02:25;8.57;;;5.33;;
16963;SDS011;8598;50.508;10.436;2023-04-06T06:04:51;7.63;;;4.70;;
16963;SDS011;8598;50.508;10.436;2023-04-06T06:07:18;5.17;;;4.67;;
16963;SDS011;8598;50.508;10.436;2023-04-06T06:09:44;6.10;;;4.53;;
16963;SDS011;8598;50.508;10.436;2023-04-06T06:12:11;7.63;;;4.17;;
16963;SDS011;8598;50.508;10.436;2023-04-06T06:14:39;4.33;;;3.83;;
16963;SDS011;8598;50.508;10.436;2023-04-06T06:17:05;7.07;;;4.30;;
16963;SDS011;8598;50.508;10.436;2023-04-06T06:19:32;4.80;;;3.67;;
16963;SDS011;8598;50.508;10.436;2023-04-06T06:21:59;5.67;;;4.17;;
16963;SDS011;8598;50.508;10.436;2023-04-06T06:24:28;4.87;;;4.13;;
16963;SDS011;8598;50.508;10.436;2023-04-06T06:26:56;5.57;;;4.13;;
16963;SDS011;8598;50.508;10.436;2023-04-06T06:29:23;6.33;;;4.10;;
16963;SDS011;8598;50.508;10.436;2023-04-06T06:31:51;4.87;;;3.70;;
16963;SDS011;8598;50.508;10.436;2023-04-06T06:34:18;7.47;;;4.63;;
16963;SDS011;8598;50.508;10.436;2023-04-06T06:36:45;5.17;;;4.53;;
16963;SDS011;8598;50.508;10.436;2023-04-06T06:39:12;5.47;;;4.80;;
16963;SDS011;8598;50.508;10.436;2023-04-06T06:41:38;6.33;;;4.80;;
16963;SDS011;8598;50.508;10.436;2023-04-06T06:44:05;5.30;;;4.80;;
16963;SDS011;8598;50.508;10.436;2023-04-06T06:46:32;8.77;;;5.50;;
16963;SDS011;8598;50.508;10.436;2023-04-06T06:49:00;6.57;;;4.87;;
16963;SDS011;8598;50.508;10.436;2023-04-06T06:51:26;6.03;;;4.63;;
16963;SDS011;8598;50.508;10.436;2023-04-06T06:53:53;7.17;;;5.27;;
16963;SDS011;8598;50.508;10.436;2023-04-06T06:56:19;7.00;;;5.33;;
16963;SDS011;8598;50.508;10.436;2023-04-06T06:58:46;6.30;;;5.13;;
16963;SDS011;8598;50.508;10.436;2023-04-06T07:01:13;4.80;;;4.40;;
16963;SDS011;8598;50.508;10.436;2023-04-06T07:03:40;4.97;;;4.03;;
16963;SDS011;8598;50.508;10.436;2023-04-06T07:06:08;5.93;;;4.50;;
16963;SDS011;8598;50.508;10.436;2023-04-06T07:08:34;5.87;;;3.87;;
16963;SDS011;8598;50.508;10.436;2023-04-06T07:11:01;6.23;;;5.03;;
16963;SDS011;8598;50.508;10.436;2023-04-06T07:13:28;5.37;;;4.87;;
16963;SDS011;8598;50.508;10.436;2023-04-06T07:15:54;6.27;;;4.80;;
16963;SDS011;8598;50.508;10.436;2023-04-06T07:18:21;5.67;;;4.33;;
16963;SDS011;8598;50.508;10.436;2023-04-06T07:20:49;6.93;;;5.30;;
16963;SDS011;8598;50.508;10.436;2023-04-06T07:23:17;5.37;;;3.93;;
16963;SDS011;8598;50.508;10.436;2023-04-06T07:25:43;6.07;;;4.53;;
16963;SDS011;8598;50.508;10.436;2023-04-06T07:28:10;5.37;;;4.23;;
16963;SDS011;8598;50.508;10.436;2023-04-06T07:30:37;8.07;;;4.90;;
16963;SDS011;8598;50.508;10.436;2023-04-06T07:33:04;4.97;;;4.07;;
16963;SDS011;8598;50.508;10.436;2023-04-06T07:35:31;4.97;;;4.47;;
16963;SDS011;8598;50.508;10.436;2023-04-06T07:37:58;6.13;;;3.97;;
16963;SDS011;8598;50.508;10.436;2023-04-06T07:40:26;5.37;;;4.00;;
16963;SDS011;8598;50.508;10.436;2023-04-06T07:42:52;5.53;;;3.87;;
16963;SDS011;8598;50.508;10.436;2023-04-06T07:45:19;6.20;;;3.77;;
16963;SDS011;8598;50.508;10.436;2023-04-06T07:47:46;6.77;;;5.10;;
16963;SDS011;8598;50.508;10.436;2023-04-06T07:50:13;7.20;;;5.83;;
16963;SDS011;8598;50.508;10.436;2023-04-06T07:52:40;10.50;;;5.63;;
16963;SDS011;8598;50.508;10.436;2023-04-06T07:55:06;10.47;;;6.13;;
16963;SDS011;8598;50.508;10.436;2023-04-06T07:57:35;8.77;;;6.53;;
16963;SDS011;8598;50.508;10.436;2023-04-06T08:00:02;10.53;;;6.70;;
16963;SDS011;8598;50.508;10.436;2023-04-06T08:02:29;7.87;;;4.67;;
16963;SDS011;8598;50.508;10.436;2023-04-06T08:04:57;5.67;;;5.10;;
16963;SDS011;8598;50.508;10.436;2023-04-06T08:07:23;7.67;;;4.57;;
16963;SDS011;8598;50.508;10.436;2023-04-06T08:09:51;8.33;;;4.83;;
16963;SDS011;8598;50.508;10.436;2023-04-06T08:12:18;7.63;;;5.00;;
16963;SDS011;8598;50.508;10.436;2023-04-06T08:14:46;8.67;;;5.40;;
16963;SDS011;8598;50.508;10.436;2023-04-06T08:17:13;6.27;;;5.30;;
16963;SDS011;8598;50.508;10.436;2023-04-06T08:19:41;6.07;;;5.33;;
16963;SDS011;8598;50.508;10.436;2023-04-06T08:22:08;8.33;;;6.50;;
16963;SDS011;8598;50.508;10.436;2023-04-06T08:24:35;9.77;;;5.70;;
16963;SDS011;8598;50.508;10.436;2023-04-06T08:27:02;9.67;;;6.90;;
16963;SDS011;8598;50.508;10.436;2023-04-06T08:29:29;10.30;;;6.33;;
16963;SDS011;8598;50.508;10.436;2023-04-06T08:31:57;5.90;;;5.20;;
16963;SDS011;8598;50.508;10.436;2023-04-06T08:34:23;7.70;;;5.67;;
16963;SDS011;8598;50.508;10.436;2023-04-06T08:36:50;8.10;;;5.90;;
16963;SDS011;8598;50.508;10.436;2023-04-06T08:39:17;7.83;;;5.57;;
16963;SDS011;8598;50.508;10.436;2023-04-06T08:41:50;5.97;;;5.33;;
16963;SDS011;8598;50.508;10.436;2023-04-06T08:44:17;7.67;;;5.83;;
16963;SDS011;8598;50.508;10.436;2023-04-06T08:46:44;8.33;;;5.10;;
16963;SDS011;8598;50.508;10.436;2023-04-06T08:49:12;10.40;;;6.27;;
16963;SDS011;8598;50.508;10.436;2023-04-06T08:51:41;8.67;;;5.90;;
16963;SDS011;8598;50.508;10.436;2023-04-06T08:54:09;7.53;;;6.00;;
16963;SDS011;8598;50.508;10.436;2023-04-06T08:56:37;6.60;;;5.30;;
16963;SDS011;8598;50.508;10.436;2023-04-06T08:59:04;8.93;;;5.37;;
16963;SDS011;8598;50.508;10.436;2023-04-06T09:01:33;7.53;;;5.93;;
16963;SDS011;8598;50.508;10.436;2023-04-06T09:04:05;7.43;;;6.17;;
16963;SDS011;8598;50.508;10.436;2023-04-06T09:06:36;7.13;;;5.97;;
16963;SDS011;8598;50.508;10.436;2023-04-06T09:09:05;8.30;;;5.23;;
16963;SDS011;8598;50.508;10.436;2023-04-06T09:11:41;8.00;;;5.67;;
16963;SDS011;8598;50.508;10.436;2023-04-06T09:14:09;7.90;;;5.60;;
16963;SDS011;8598;50.508;10.436;2023-04-06T09:16:38;7.33;;;6.13;;
16963;SDS011;8598;50.508;10.436;2023-04-06T09:19:06;11.17;;;6.30;;
16963;SDS011;8598;50.508;10.436;2023-04-06T09:21:32;6.60;;;5.20;;
16963;SDS011;8598;50.508;10.436;2023-04-06T09:24:01;21.63;;;11.03;;
16963;SDS011;8598;50.508;10.436;2023-04-06T09:26:28;13.63;;;8.83;;
16963;SDS011;8598;50.508;10.436;2023-04-06T09:28:56;11.57;;;8.07;;
16963;SDS011;8598;50.508;10.436;2023-04-06T09:31:26;8.73;;;6.90;;
16963;SDS011;8598;50.508;10.436;2023-04-06T09:33:54;9.13;;;6.30;;
16963;SDS011;8598;50.508;10.436;2023-04-06T09:36:29;10.67;;;6.27;;
16963;SDS011;8598;50.508;10.436;2023-04-06T09:38:57;8.13;;;5.37;;
16963;SDS011;8598;50.508;10.436;2023-04-06T09:41:26;7.37;;;5.93;;
16963;SDS011;8598;50.508;10.436;2023-04-06T09:44:01;12.37;;;6.57;;
16963;SDS011;8598;50.508;10.436;2023-04-06T09:46:31;9.13;;;5.60;;
16963;SDS011;8598;50.508;10.436;2023-04-06T09:48:59;7.80;;;5.73;;
16963;SDS011;8598;50.508;10.436;2023-04-06T09:51:27;6.90;;;5.23;;
16963;SDS011;8598;50.508;10.436;2023-04-06T09:53:56;11.83;;;6.33;;
16963;SDS011;8598;50.508;10.436;2023-04-06T09:56:28;10.97;;;6.20;;
16963;SDS011;8598;50.508;10.436;2023-04-06T09:59:01;11.17;;;6.83;;
16963;SDS011;8598;50.508;10.436;2023-04-06T10:01:32;8.50;;;6.00;;
16963;SDS011;8598;50.508;10.436;2023-04-06T10:04:03;10.27;;;5.93;;
16963;SDS011;8598;50.508;10.436;2023-04-06T10:06:39;9.70;;;6.17;;
16963;SDS011;8598;50.508;10.436;2023-04-06T10:09:06;8.97;;;6.43;;
16963;SDS011;8598;50.508;10.436;2023-04-06T10:11:35;8.47;;;6.13;;
16963;SDS011;8598;50.508;10.436;2023-04-06T10:14:02;10.63;;;5.90;;
16963;SDS011;8598;50.508;10.436;2023-04-06T10:16:29;8.30;;;6.07;;
16963;SDS011;8598;50.508;10.436;2023-04-06T10:18:57;8.33;;;5.70;;
16963;SDS011;8598;50.508;10.436;2023-04-06T10:21:28;9.17;;;6.77;;
16963;SDS011;8598;50.508;10.436;2023-04-06T10:23:57;7.77;;;6.40;;
16963;SDS011;8598;50.508;10.436;2023-04-06T10:26:25;10.03;;;6.77;;
16963;SDS011;8598;50.508;10.436;2023-04-06T10:28:54;8.27;;;6.40;;
16963;SDS011;8598;50.508;10.436;2023-04-06T10:31:24;10.30;;;6.63;;
16963;SDS011;8598;50.508;10.436;2023-04-06T10:33:55;9.20;;;6.00;;
16963;SDS011;8598;50.508;10.436;2023-04-06T10:36:23;8.43;;;6.03;;
16963;SDS011;8598;50.508;10.436;2023-04-06T10:38:55;10.60;;;5.87;;
16963;SDS011;8598;50.508;10.436;2023-04-06T10:41:23;10.47;;;6.37;;
16963;SDS011;8598;50.508;10.436;2023-04-06T10:43:55;7.47;;;6.37;;
16963;SDS011;8598;50.508;10.436;2023-04-06T10:46:26;9.80;;;6.90;;
16963;SDS011;8598;50.508;10.436;2023-04-06T10:48:53;17.73;;;8.07;;
16963;SDS011;8598;50.508;10.436;2023-04-06T10:51:23;9.30;;;6.17;;
16963;SDS011;8598;50.508;10.436;2023-04-06T10:53:52;12.13;;;7.70;;
16963;SDS011;8598;50.508;10.436;2023-04-06T10:56:21;10.27;;;6.83;;
16963;SDS011;8598;50.508;10.436;2023-04-06T10:58:51;11.40;;;6.50;;
16963;SDS011;8598;50.508;10.436;2023-04-06T11:01:22;9.27;;;6.97;;
16963;SDS011;8598;50.508;10.436;2023-04-06T11:03:53;10.40;;;6.40;;
16963;SDS011;8598;50.508;10.436;2023-04-06T11:06:21;9.33;;;6.77;;
16963;SDS011;8598;50.508;10.436;2023-04-06T11:08:49;11.47;;;6.80;;
16963;SDS011;8598;50.508;10.436;2023-04-06T11:11:17;10.47;;;7.77;;
16963;SDS011;8598;50.508;10.436;2023-04-06T11:13:45;12.03;;;7.10;;
16963;SDS011;8598;50.508;10.436;2023-04-06T11:16:14;9.57;;;6.97;;
16963;SDS011;8598;50.508;10.436;2023-04-06T11:18:50;10.97;;;8.30;;
16963;SDS011;8598;50.508;10.436;2023-04-06T11:21:19;10.90;;;7.17;;
16963;SDS011;8598;50.508;10.436;2023-04-06T11:23:46;11.80;;;7.87;;
16963;SDS011;8598;50.508;10.436;2023-04-06T11:26:13;14.57;;;7.30;;
16963;SDS011;8598;50.508;10.436;2023-04-06T11:28:40;12.13;;;8.30;;
16963;SDS011;8598;50.508;10.436;2023-04-06T11:31:08;9.80;;;7.17;;
16963;SDS011;8598;50.508;10.436;2023-04-06T11:33:35;9.43;;;6.50;;
16963;SDS011;8598;50.508;10.436;2023-04-06T11:36:05;9.57;;;6.20;;
16963;SDS011;8598;50.508;10.436;2023-04-06T11:38:32;10.77;;;6.67;;
16963;SDS011;8598;50.508;10.436;2023-04-06T11:41:00;10.53;;;6.77;;
16963;SDS011;8598;50.508;10.436;2023-04-06T11:43:28;10.63;;;7.00;;
16963;SDS011;8598;50.508;10.436;2023-04-06T11:46:02;12.67;;;7.17;;
16963;SDS011;8598;50.508;10.436;2023-04-06T11:48:30;9.43;;;6.43;;
16963;SDS011;8598;50.508;10.436;2023-04-06T11:50:57;12.50;;;6.60;;
16963;SDS011;8598;50.508;10.436;2023-04-06T11:53:27;9.67;;;6.93;;
16963;SDS011;8598;50.508;10.436;2023-04-06T11:55:54;11.13;;;7.13;;
16963;SDS011;8598;50.508;10.436;2023-04-06T11:58:21;12.30;;;7.13;;
16963;SDS011;8598;50.508;10.436;2023-04-06T12:00:47;10.77;;;8.27;;
16963;SDS011;8598;50.508;10.436;2023-04-06T12:03:14;9.93;;;7.10;;
16963;SDS011;8598;50.508;10.436;2023-04-06T12:05:41;12.17;;;7.73;;
16963;SDS011;8598;50.508;10.436;2023-04-06T12:08:07;11.67;;;6.77;;
16963;SDS011;8598;50.508;10.436;2023-04-06T12:10:35;9.97;;;6.43;;
16963;SDS011;8598;50.508;10.436;2023-04-06T12:13:03;11.03;;;7.07;;
16963;SDS011;8598;50.508;10.436;2023-04-06T12:15:30;11.60;;;7.00;;
16963;SDS011;8598;50.508;10.436;2023-04-06T12:17:57;10.87;;;7.20;;
16963;SDS011;8598;50.508;10.436;2023-04-06T12:20:23;11.37;;;7.70;;
16963;SDS011;8598;50.508;10.436;2023-04-06T12:22:50;9.87;;;6.93;;
16963;SDS011;8598;50.508;10.436;2023-04-06T12:25:17;10.60;;;8.00;;
16963;SDS011;8598;50.508;10.436;2023-04-06T12:27:45;10.83;;;7.37;;
16963;SDS011;8598;50.508;10.436;2023-04-06T12:30:12;8.83;;;7.03;;
16963;SDS011;8598;50.508;10.436;2023-04-06T12:32:39;9.27;;;7.07;;
16963;SDS011;8598;50.508;10.436;2023-04-06T12:35:06;9.57;;;7.53;;
16963;SDS011;8598;50.508;10.436;2023-04-06T12:37:33;9.47;;;7.43;;
16963;SDS011;8598;50.508;10.436;2023-04-06T12:40:01;14.17;;;9.07;;
16963;SDS011;8598;50.508;10.436;2023-04-06T12:42:29;10.97;;;7.80;;
16963;SDS011;8598;50.508;10.436;2023-04-06T12:44:57;17.10;;;10.20;;
16963;SDS011;8598;50.508;10.436;2023-04-06T12:47:24;15.57;;;10.63;;
16963;SDS011;8598;50.508;10.436;2023-04-06T12:49:51;11.50;;;8.33;;
16963;SDS011;8598;50.508;10.436;2023-04-06T12:52:19;12.63;;;9.43;;
16963;SDS011;8598;50.508;10.436;2023-04-06T12:54:45;20.37;;;16.60;;
16963;SDS011;8598;50.508;10.436;2023-04-06T12:57:13;9.33;;;7.47;;
16963;SDS011;8598;50.508;10.436;2023-04-06T12:59:42;13.57;;;9.87;;
16963;SDS011;8598;50.508;10.436;2023-04-06T13:02:10;12.80;;;8.27;;
16963;SDS011;8598;50.508;10.436;2023-04-06T13:04:37;14.03;;;8.80;;
16963;SDS011;8598;50.508;10.436;2023-04-06T13:07:04;12.97;;;7.43;;
16963;SDS011;8598;50.508;10.436;2023-04-06T13:09:31;11.67;;;7.87;;
16963;SDS011;8598;50.508;10.436;2023-04-06T13:11:57;8.20;;;6.70;;
16963;SDS011;8598;50.508;10.436;2023-04-06T13:14:24;13.77;;;8.17;;
16963;SDS011;8598;50.508;10.436;2023-04-06T13:16:51;12.40;;;7.47;;
16963;SDS011;8598;50.508;10.436;2023-04-06T13:19:19;12.50;;;7.43;;
16963;SDS011;8598;50.508;10.436;2023-04-06T13:21:46;11.97;;;8.60;;
16963;SDS011;8598;50.508;10.436;2023-04-06T13:24:13;11.37;;;7.63;;
16963;SDS011;8598;50.508;10.436;2023-04-06T13:26:40;10.47;;;7.37;;
16963;SDS011;8598;50.508;10.436;2023-04-06T13:29:06;11.93;;;8.07;;
16963;SDS011;8598;50.508;10.436;2023-04-06T13:31:33;11.17;;;7.40;;
16963;SDS011;8598;50.508;10.436;2023-04-06T13:34:00;8.03;;;6.33;;
16963;SDS011;8598;50.508;10.436;2023-04-06T13:36:28;10.67;;;6.90;;
16963;SDS011;8598;50.508;10.436;2023-04-06T13:38:56;12.93;;;7.10;;
16963;SDS011;8598;50.508;10.436;2023-04-06T13:41:24;12.10;;;7.30;;
16963;SDS011;8598;50.508;10.436;2023-04-06T13:43:51;10.47;;;5.80;;
16963;SDS011;8598;50.508;10.436;2023-04-06T13:46:18;9.07;;;5.80;;
16963;SDS011;8598;50.508;10.436;2023-04-06T13:48:44;9.93;;;6.47;;
16963;SDS011;8598;50.508;10.436;2023-04-06T13:51:12;7.97;;;6.30;;
16963;SDS011;8598;50.508;10.436;2023-04-06T13:53:40;10.47;;;6.33;;
16963;SDS011;8598;50.508;10.436;2023-04-06T13:56:07;6.80;;;5.93;;
16963;SDS011;8598;50.508;10.436;2023-04-06T13:58:34;10.27;;;6.00;;
16963;SDS011;8598;50.508;10.436;2023-04-06T14:01:02;10.60;;;6.17;;
16963;SDS011;8598;50.508;10.436;2023-04-06T14:03:29;8.57;;;6.60;;
16963;SDS011;8598;50.508;10.436;2023-04-06T14:05:56;7.77;;;5.67;;
16963;SDS011;8598;50.508;10.436;2023-04-06T14:08:23;9.77;;;6.93;;
16963;SDS011;8598;50.508;10.436;2023-04-06T14:10:50;9.33;;;5.77;;
16963;SDS011;8598;50.508;10.436;2023-04-06T14:13:19;9.37;;;6.40;;
16963;SDS011;8598;50.508;10.436;2023-04-06T14:15:45;8.03;;;5.90;;
16963;SDS011;8598;50.508;10.436;2023-04-06T14:18:12;9.80;;;5.97;;
16963;SDS011;8598;50.508;10.436;2023-04-06T14:20:38;7.03;;;5.37;;
16963;SDS011;8598;50.508;10.436;2023-04-06T14:23:05;6.00;;;5.17;;
16963;SDS011;8598;50.508;10.436;2023-04-06T14:25:32;11.53;;;6.17;;
16963;SDS011;8598;50.508;10.436;2023-04-06T14:28:00;7.13;;;5.47;;
16963;SDS011;8598;50.508;10.436;2023-04-06T14:30:27;9.93;;;6.10;;
16963;SDS011;8598;50.508;10.436;2023-04-06T14:32:56;11.97;;;6.80;;
16963;SDS011;8598;50.508;10.436;2023-04-06T14:35:23;14.73;;;8.83;;
16963;SDS011;8598;50.508;10.436;2023-04-06T14:37:52;9.77;;;7.23;;
16963;SDS011;8598;50.508;10.436;2023-04-06T14:40:19;8.93;;;6.03;;
16963;SDS011;8598;50.508;10.436;2023-04-06T14:42:46;9.67;;;6.47;;